createdAt,value
2023-04-15T00:01:10.189Z,100.00
2023-04-15T00:03:37.120Z,100.00
2023-04-15T00:06:04.197Z,100.00
2023-04-15T00:08:31.116Z,100.00
2023-04-15T00:11:02.776Z,100.00
2023-04-15T00:13:29.753Z,100.00
2023-04-15T00:15:56.492Z,100.00
2023-04-15T00:18:24.300Z,100.00
2023-04-15T00:20:51.110Z,100.00
2023-04-15T00:23:18.131Z,100.00
2023-04-15T00:25:45.452Z,100.00
2023-04-15T00:28:12.422Z,100.00
2023-04-15T00:30:39.537Z,100.00
2023-04-15T00:33:06.730Z,100.00
2023-04-15T00:35:33.643Z,100.00
2023-04-15T00:38:00.699Z,100.00
2023-04-15T00:40:27.871Z,100.00
2023-04-15T00:42:55.175Z,100.00
2023-04-15T00:45:21.993Z,100.00
2023-04-15T00:47:48.840Z,100.00
2023-04-15T00:50:16.918Z,100.00
2023-04-15T00:52:43.841Z,100.00
2023-04-15T00:55:11.395Z,100.00
2023-04-15T00:57:39.622Z,100.00
2023-04-15T01:00:08.943Z,100.00
2023-04-15T01:02:39.132Z,100.00
2023-04-15T01:05:06.362Z,100.00
2023-04-15T01:07:33.257Z,100.00
2023-04-15T01:10:00.157Z,100.00
2023-04-15T01:12:27.483Z,100.00
2023-04-15T01:14:55.328Z,100.00
2023-04-15T01:17:22.134Z,100.00
2023-04-15T01:19:48.845Z,100.00
2023-04-15T01:22:16.412Z,100.00
2023-04-15T01:24:49.918Z,100.00
2023-04-15T01:27:17.056Z,100.00
2023-04-15T01:29:43.729Z,100.00
2023-04-15T01:32:11.999Z,100.00
2023-04-15T01:34:38.827Z,100.00
2023-04-15T01:37:06.054Z,100.00
2023-04-15T01:39:32.827Z,100.00
2023-04-15T01:41:59.501Z,100.00
2023-04-15T01:44:26.522Z,100.00
2023-04-15T01:46:53.240Z,100.00
2023-04-15T01:49:20.141Z,100.00
2023-04-15T01:51:46.879Z,100.00
2023-04-15T01:54:13.416Z,100.00
2023-04-15T01:56:40.135Z,100.00
2023-04-15T01:59:07.095Z,100.00
2023-04-15T02:01:33.905Z,100.00
2023-04-15T02:04:01.019Z,100.00
2023-04-15T02:06:28.350Z,100.00
2023-04-15T02:08:55.443Z,100.00
2023-04-15T02:11:23.244Z,100.00
2023-04-15T02:13:49.916Z,100.00
2023-04-15T02:16:20.507Z,100.00
2023-04-15T02:18:48.087Z,100.00
2023-04-15T02:21:14.914Z,100.00
2023-04-15T02:23:41.704Z,100.00
2023-04-15T02:26:08.320Z,100.00
2023-04-15T02:28:34.982Z,100.00
2023-04-15T02:31:06.660Z,100.00
2023-04-15T02:33:33.577Z,100.00
2023-04-15T02:36:01.125Z,100.00
2023-04-15T02:38:28.425Z,100.00
2023-04-15T02:40:55.818Z,100.00
2023-04-15T02:43:22.466Z,100.00
2023-04-15T02:45:51.446Z,100.00
2023-04-15T02:48:19.739Z,100.00
2023-04-15T02:50:47.898Z,100.00
2023-04-15T02:53:15.658Z,100.00
2023-04-15T02:55:42.939Z,100.00
2023-04-15T02:58:09.740Z,100.00
2023-04-15T03:00:36.693Z,100.00
2023-04-15T03:03:06.261Z,100.00
2023-04-15T03:05:33.361Z,100.00
2023-04-15T03:08:03.298Z,100.00
2023-04-15T03:10:29.985Z,100.00
2023-04-15T03:12:56.579Z,100.00
2023-04-15T03:15:24.200Z,100.00
2023-04-15T03:17:52.896Z,100.00
2023-04-15T03:20:20.440Z,100.00
2023-04-15T03:22:48.412Z,100.00
2023-04-15T03:25:15.676Z,100.00
2023-04-15T03:27:43.217Z,100.00
2023-04-15T03:30:11.598Z,100.00
2023-04-15T03:32:40.163Z,100.00
2023-04-15T03:35:08.410Z,100.00
2023-04-15T03:37:35.815Z,100.00
2023-04-15T03:40:02.873Z,100.00
2023-04-15T03:42:29.658Z,100.00
2023-04-15T03:44:56.712Z,100.00
2023-04-15T03:47:23.858Z,100.00
2023-04-15T03:49:50.602Z,100.00
2023-04-15T03:52:17.196Z,100.00
2023-04-15T03:54:43.710Z,100.00
2023-04-15T03:57:10.757Z,100.00
2023-04-15T03:59:37.418Z,100.00
2023-04-15T04:02:04.277Z,100.00
2023-04-15T04:04:31.073Z,100.00
2023-04-15T04:06:57.643Z,100.00
2023-04-15T04:09:24.495Z,100.00
2023-04-15T04:11:51.235Z,100.00
2023-04-15T04:14:17.762Z,100.00
2023-04-15T04:16:45.255Z,100.00
2023-04-15T04:19:12.276Z,100.00
2023-04-15T04:21:39.765Z,100.00
2023-04-15T04:24:06.517Z,100.00
2023-04-15T04:26:33.269Z,100.00
2023-04-15T04:28:59.956Z,100.00
2023-04-15T04:31:27.285Z,100.00
2023-04-15T04:33:53.944Z,100.00
2023-04-15T04:36:20.613Z,100.00
2023-04-15T04:38:47.170Z,100.00
2023-04-15T04:41:13.986Z,100.00
2023-04-15T04:43:40.526Z,100.00
2023-04-15T04:46:07.225Z,100.00
2023-04-15T04:48:34.212Z,100.00
2023-04-15T04:51:01.169Z,100.00
2023-04-15T04:53:28.074Z,100.00
2023-04-15T04:55:54.854Z,100.00
2023-04-15T04:58:21.530Z,100.00
2023-04-15T05:00:48.190Z,100.00
2023-04-15T05:03:15.542Z,100.00
2023-04-15T05:05:42.488Z,100.00
2023-04-15T05:08:09.281Z,100.00
2023-04-15T05:10:36.288Z,100.00
2023-04-15T05:13:02.946Z,100.00
2023-04-15T05:15:29.757Z,100.00
2023-04-15T05:17:56.797Z,100.00
2023-04-15T05:20:23.639Z,100.00
2023-04-15T05:22:50.301Z,100.00
2023-04-15T05:25:17.348Z,100.00
2023-04-15T05:27:44.185Z,100.00
2023-04-15T05:30:13.323Z,100.00
2023-04-15T05:32:40.673Z,100.00
2023-04-15T05:35:08.173Z,100.00
2023-04-15T05:37:35.098Z,100.00
2023-04-15T05:40:01.712Z,100.00
2023-04-15T05:42:28.508Z,100.00
2023-04-15T05:44:55.286Z,100.00
2023-04-15T05:47:21.882Z,100.00
2023-04-15T05:49:48.489Z,100.00
2023-04-15T05:52:15.471Z,100.00
2023-04-15T05:54:42.107Z,100.00
2023-04-15T05:57:08.867Z,100.00
2023-04-15T05:59:36.100Z,100.00
2023-04-15T06:02:02.916Z,100.00
2023-04-15T06:04:29.732Z,100.00
2023-04-15T06:06:57.039Z,100.00
2023-04-15T06:09:23.704Z,100.00
2023-04-15T06:11:51.780Z,100.00
2023-04-15T06:14:18.434Z,100.00
2023-04-15T06:16:45.107Z,100.00
2023-04-15T06:19:12.527Z,100.00
2023-04-15T06:21:39.190Z,100.00
2023-04-15T06:24:06.042Z,100.00
2023-04-15T06:26:32.900Z,100.00
2023-04-15T06:28:59.723Z,100.00
2023-04-15T06:31:27.005Z,100.00
2023-04-15T06:33:53.553Z,100.00
2023-04-15T06:36:20.730Z,100.00
2023-04-15T06:38:47.277Z,100.00
2023-04-15T06:41:14.007Z,100.00
2023-04-15T06:43:40.595Z,100.00
2023-04-15T06:46:07.338Z,100.00
2023-04-15T06:48:34.075Z,100.00
2023-04-15T06:51:01.449Z,100.00
2023-04-15T06:53:28.391Z,100.00
2023-04-15T06:55:55.083Z,100.00
2023-04-15T06:58:22.200Z,100.00
2023-04-15T07:00:49.105Z,100.00
2023-04-15T07:03:16.079Z,100.00
2023-04-15T07:05:42.738Z,100.00
2023-04-15T07:08:09.769Z,100.00
2023-04-15T07:10:36.974Z,100.00
2023-04-15T07:13:04.334Z,100.00
2023-04-15T07:15:31.137Z,100.00
2023-04-15T07:17:57.823Z,100.00
2023-04-15T07:20:24.637Z,100.00
2023-04-15T07:22:51.217Z,100.00
2023-04-15T07:25:19.108Z,100.00
2023-04-15T07:27:45.891Z,100.00
2023-04-15T07:30:12.870Z,100.00
2023-04-15T07:32:42.808Z,100.00
2023-04-15T07:35:09.788Z,100.00
2023-04-15T07:37:36.669Z,100.00
2023-04-15T07:40:04.912Z,100.00
2023-04-15T07:42:31.853Z,100.00
2023-04-15T07:44:58.509Z,100.00
2023-04-15T07:47:25.977Z,100.00
2023-04-15T07:49:53.171Z,100.00
2023-04-15T07:52:19.917Z,100.00
2023-04-15T07:54:46.865Z,97.68
2023-04-15T07:57:13.470Z,97.12
2023-04-15T07:59:40.364Z,96.49
2023-04-15T08:02:07.370Z,91.52
2023-04-15T08:04:34.416Z,96.67
2023-04-15T08:07:01.341Z,94.36
2023-04-15T08:09:28.036Z,98.16
2023-04-15T08:11:54.702Z,92.85
2023-04-15T08:14:21.723Z,95.37
2023-04-15T08:16:48.310Z,90.03
2023-04-15T08:19:15.081Z,91.51
2023-04-15T08:21:44.620Z,85.47
2023-04-15T08:24:11.559Z,89.31
2023-04-15T08:26:38.255Z,90.81
2023-04-15T08:29:05.135Z,88.82
2023-04-15T08:31:32.148Z,91.03
2023-04-15T08:33:59.350Z,90.08
2023-04-15T08:36:27.041Z,89.85
2023-04-15T08:38:54.041Z,94.83
2023-04-15T08:41:22.450Z,89.38
2023-04-15T08:43:54.414Z,87.45
2023-04-15T08:46:21.523Z,91.20
2023-04-15T08:48:49.462Z,94.30
2023-04-15T08:51:18.238Z,93.82
2023-04-15T08:53:47.505Z,89.72
2023-04-15T08:56:16.833Z,91.72
2023-04-15T08:58:47.766Z,90.85
2023-04-15T09:01:14.418Z,92.97
2023-04-15T09:03:42.542Z,93.93
2023-04-15T09:06:09.455Z,92.60
2023-04-15T09:08:36.312Z,92.94
2023-04-15T09:11:03.658Z,91.53
2023-04-15T09:13:31.009Z,91.71
2023-04-15T09:15:58.465Z,92.05
2023-04-15T09:18:30.813Z,90.44
2023-04-15T09:21:09.064Z,93.24
2023-04-15T09:23:36.291Z,95.85
2023-04-15T09:26:04.050Z,96.29
2023-04-15T09:28:31.396Z,95.20
2023-04-15T09:30:59.895Z,94.36
2023-04-15T09:33:28.199Z,92.11
2023-04-15T09:36:04.708Z,94.10
2023-04-15T09:38:32.132Z,95.32
2023-04-15T09:40:59.258Z,95.28
2023-04-15T09:43:40.168Z,95.22
2023-04-15T09:46:06.937Z,94.93
2023-04-15T09:48:33.590Z,96.10
2023-04-15T09:51:01.909Z,98.88
2023-04-15T09:53:31.172Z,90.49
2023-04-15T09:56:03.362Z,90.75
2023-04-15T09:58:32.281Z,91.29
2023-04-15T10:01:00.488Z,91.52
2023-04-15T10:03:29.444Z,90.85
2023-04-15T10:05:57.622Z,91.98
2023-04-15T10:08:29.217Z,91.16
2023-04-15T10:10:56.354Z,90.91
2023-04-15T10:13:29.734Z,87.57
2023-04-15T10:16:01.233Z,81.11
2023-04-15T10:18:29.288Z,78.70
2023-04-15T10:20:56.017Z,72.29
2023-04-15T10:23:24.570Z,75.63
2023-04-15T10:25:54.561Z,67.15
2023-04-15T10:28:22.885Z,72.41
2023-04-15T10:30:50.099Z,69.34
2023-04-15T10:33:20.758Z,66.68
2023-04-15T10:35:48.918Z,52.53
2023-04-15T10:38:34.495Z,61.50
2023-04-15T10:41:14.659Z,56.74
2023-04-15T10:43:51.920Z,54.60
2023-04-15T10:46:21.339Z,53.69
2023-04-15T10:48:50.138Z,54.54
2023-04-15T10:51:16.989Z,55.71
2023-04-15T10:53:43.615Z,52.04
2023-04-15T10:56:10.546Z,50.97
2023-04-15T10:58:44.181Z,57.61
2023-04-15T11:01:11.025Z,54.87
2023-04-15T11:03:40.191Z,56.91
2023-04-15T11:06:07.546Z,56.77
2023-04-15T11:08:57.499Z,58.87
2023-04-15T11:11:44.941Z,57.57
2023-04-15T11:14:16.373Z,60.49
2023-04-15T11:16:45.061Z,55.54
2023-04-15T11:19:12.013Z,59.07
2023-04-15T11:21:38.664Z,56.68
2023-04-15T11:24:05.437Z,54.47
2023-04-15T11:26:32.365Z,59.86
2023-04-15T11:28:59.769Z,60.81
2023-04-15T11:31:28.605Z,55.76
2023-04-15T11:33:58.251Z,58.85
2023-04-15T11:36:27.543Z,56.10
2023-04-15T11:38:54.411Z,54.69
2023-04-15T11:41:24.313Z,53.63
2023-04-15T11:43:52.096Z,57.10
2023-04-15T11:46:19.010Z,56.71
2023-04-15T11:48:47.311Z,62.19
2023-04-15T11:51:14.526Z,63.43
2023-04-15T11:53:46.714Z,69.43
2023-04-15T11:56:25.256Z,69.60
2023-04-15T11:59:03.023Z,71.60
2023-04-15T12:01:42.250Z,68.90
2023-04-15T12:04:21.474Z,71.84
2023-04-15T12:06:49.950Z,75.26
2023-04-15T12:09:17.068Z,80.26
2023-04-15T12:11:47.087Z,80.46
2023-04-15T12:14:32.115Z,84.28
2023-04-15T12:17:03.574Z,83.96
2023-04-15T12:19:32.503Z,87.13
2023-04-15T12:22:20.928Z,85.69
2023-04-15T12:24:49.072Z,88.82
2023-04-15T12:27:17.161Z,87.47
2023-04-15T12:29:43.964Z,90.16
2023-04-15T12:32:11.756Z,88.05
2023-04-15T12:34:50.197Z,89.65
2023-04-15T12:37:17.683Z,91.68
2023-04-15T12:39:45.886Z,87.36
2023-04-15T12:42:13.248Z,86.39
2023-04-15T12:44:40.492Z,83.17
2023-04-15T12:47:08.506Z,87.15
2023-04-15T12:49:35.148Z,85.90
2023-04-15T12:52:03.426Z,80.94
2023-04-15T12:54:31.375Z,78.01
2023-04-15T12:56:59.242Z,76.96
2023-04-15T12:59:25.931Z,80.98
2023-04-15T13:01:53.891Z,82.49
2023-04-15T13:04:21.913Z,84.67
2023-04-15T13:06:48.989Z,80.27
2023-04-15T13:09:15.856Z,83.17
2023-04-15T13:11:43.121Z,78.76
2023-04-15T13:14:12.839Z,77.70
2023-04-15T13:16:39.747Z,78.85
2023-04-15T13:19:06.482Z,77.60
2023-04-15T13:21:36.240Z,77.37
2023-04-15T13:24:04.905Z,80.31
2023-04-15T13:26:32.357Z,77.15
2023-04-15T13:28:59.452Z,70.71
2023-04-15T13:31:26.400Z,75.30
2023-04-15T13:33:53.280Z,74.27
2023-04-15T13:36:20.032Z,75.76
2023-04-15T13:38:48.054Z,84.50
2023-04-15T13:41:16.635Z,87.16
2023-04-15T13:43:43.422Z,83.73
2023-04-15T13:46:10.395Z,82.46
2023-04-15T13:48:37.098Z,84.48
2023-04-15T13:51:03.778Z,85.09
2023-04-15T13:53:37.930Z,77.92
2023-04-15T13:56:09.216Z,81.48
2023-04-15T13:58:37.062Z,79.48
2023-04-15T14:01:05.742Z,81.27
2023-04-15T14:03:33.362Z,80.66
2023-04-15T14:06:00.022Z,85.00
2023-04-15T14:08:27.081Z,78.56
2023-04-15T14:10:53.856Z,78.12
2023-04-15T14:13:20.597Z,75.11
2023-04-15T14:15:47.304Z,75.53
2023-04-15T14:18:14.437Z,73.43
2023-04-15T14:20:41.118Z,74.47
2023-04-15T14:23:07.954Z,75.13
2023-04-15T14:25:34.636Z,71.91
2023-04-15T14:28:02.656Z,71.39
2023-04-15T14:30:29.386Z,75.26
2023-04-15T14:32:56.545Z,76.38
2023-04-15T14:35:25.432Z,73.36
2023-04-15T14:37:53.553Z,73.31
2023-04-15T14:40:20.497Z,74.37
2023-04-15T14:42:47.151Z,76.04
2023-04-15T14:45:13.876Z,82.15
2023-04-15T14:47:40.811Z,82.16
2023-04-15T14:50:08.034Z,79.82
2023-04-15T14:52:38.689Z,81.51
2023-04-15T14:55:14.590Z,80.06
2023-04-15T14:57:42.763Z,82.62
2023-04-15T15:00:13.772Z,80.30
2023-04-15T15:02:43.284Z,81.76
2023-04-15T15:05:10.881Z,88.73
2023-04-15T15:07:38.650Z,86.03
2023-04-15T15:10:06.079Z,90.13
2023-04-15T15:12:33.528Z,87.11
2023-04-15T15:15:01.637Z,93.33
2023-04-15T15:17:29.876Z,89.23
2023-04-15T15:19:57.406Z,92.24
2023-04-15T15:22:24.688Z,92.56
2023-04-15T15:24:51.256Z,100.00
2023-04-15T15:27:17.917Z,100.00
2023-04-15T15:29:44.730Z,100.00
2023-04-15T15:32:11.360Z,100.00
2023-04-15T15:34:38.272Z,100.00
2023-04-15T15:37:04.910Z,100.00
2023-04-15T15:39:31.609Z,100.00
2023-04-15T15:41:58.307Z,100.00
2023-04-15T15:44:24.917Z,100.00
2023-04-15T15:46:51.829Z,100.00
2023-04-15T15:49:19.682Z,100.00
2023-04-15T15:51:46.699Z,100.00
2023-04-15T15:54:13.414Z,100.00
2023-04-15T15:56:40.374Z,100.00
2023-04-15T15:59:07.217Z,100.00
2023-04-15T16:01:34.301Z,100.00
2023-04-15T16:04:01.281Z,100.00
2023-04-15T16:06:28.175Z,100.00
2023-04-15T16:08:54.949Z,100.00
2023-04-15T16:11:21.613Z,100.00
2023-04-15T16:13:48.178Z,100.00
2023-04-15T16:16:15.211Z,100.00
2023-04-15T16:18:41.803Z,100.00
2023-04-15T16:21:08.639Z,100.00
2023-04-15T16:23:36.780Z,100.00
2023-04-15T16:26:03.794Z,100.00
2023-04-15T16:28:30.479Z,100.00
2023-04-15T16:30:57.161Z,100.00
2023-04-15T16:33:24.197Z,100.00
2023-04-15T16:35:51.725Z,100.00
2023-04-15T16:38:18.390Z,100.00
2023-04-15T16:40:46.339Z,100.00
2023-04-15T16:43:12.889Z,100.00
2023-04-15T16:45:39.737Z,100.00
2023-04-15T16:48:06.659Z,100.00
2023-04-15T16:50:33.493Z,100.00
2023-04-15T16:53:01.032Z,100.00
2023-04-15T16:55:27.564Z,100.00
2023-04-15T16:58:01.525Z,100.00
2023-04-15T17:00:29.802Z,100.00
2023-04-15T17:02:56.608Z,100.00
2023-04-15T17:05:23.559Z,100.00
2023-04-15T17:07:50.085Z,100.00
2023-04-15T17:10:16.645Z,100.00
2023-04-15T17:12:43.439Z,100.00
2023-04-15T17:15:10.594Z,100.00
2023-04-15T17:17:37.432Z,100.00
2023-04-15T17:20:04.315Z,100.00
2023-04-15T17:22:31.348Z,100.00
2023-04-15T17:24:57.894Z,100.00
2023-04-15T17:27:26.652Z,100.00
2023-04-15T17:29:53.215Z,100.00
2023-04-15T17:32:20.311Z,100.00
2023-04-15T17:34:50.013Z,100.00
2023-04-15T17:37:17.959Z,100.00
2023-04-15T17:39:44.520Z,100.00
2023-04-15T17:42:11.570Z,100.00
2023-04-15T17:44:38.251Z,100.00
2023-04-15T17:47:04.955Z,100.00
2023-04-15T17:49:34.168Z,100.00
2023-04-15T17:52:01.202Z,100.00
2023-04-15T17:54:28.115Z,100.00
2023-04-15T17:56:54.889Z,100.00
2023-04-15T17:59:21.609Z,100.00
2023-04-15T18:01:48.718Z,100.00
2023-04-15T18:04:15.756Z,100.00
2023-04-15T18:06:42.538Z,100.00
2023-04-15T18:09:09.334Z,100.00
2023-04-15T18:11:36.291Z,100.00
2023-04-15T18:14:04.248Z,100.00
2023-04-15T18:16:31.324Z,100.00
2023-04-15T18:18:58.156Z,100.00
2023-04-15T18:21:24.934Z,100.00
2023-04-15T18:23:51.508Z,100.00
2023-04-15T18:26:18.358Z,100.00
2023-04-15T18:28:45.012Z,100.00
2023-04-15T18:31:11.679Z,100.00
2023-04-15T18:33:39.062Z,100.00
2023-04-15T18:36:05.976Z,100.00
2023-04-15T18:38:32.913Z,100.00
2023-04-15T18:40:59.668Z,100.00
2023-04-15T18:43:26.343Z,100.00
2023-04-15T18:45:54.605Z,100.00
2023-04-15T18:48:21.541Z,100.00
2023-04-15T18:50:48.988Z,100.00
2023-04-15T18:53:16.428Z,100.00
2023-04-15T18:55:43.015Z,100.00
2023-04-15T18:58:09.913Z,100.00
2023-04-15T19:00:40.678Z,100.00
2023-04-15T19:03:08.058Z,100.00
2023-04-15T19:05:35.693Z,100.00
2023-04-15T19:08:02.471Z,100.00
2023-04-15T19:10:29.246Z,100.00
2023-04-15T19:12:56.022Z,100.00
2023-04-15T19:15:22.807Z,100.00
2023-04-15T19:17:49.609Z,100.00
2023-04-15T19:20:16.935Z,100.00
2023-04-15T19:22:43.675Z,100.00
2023-04-15T19:25:10.433Z,100.00
2023-04-15T19:27:38.511Z,100.00
2023-04-15T19:30:06.982Z,100.00
2023-04-15T19:32:34.137Z,100.00
2023-04-15T19:35:00.819Z,100.00
2023-04-15T19:37:27.539Z,100.00
2023-04-15T19:39:54.736Z,100.00
2023-04-15T19:42:21.563Z,100.00
2023-04-15T19:44:48.373Z,100.00
2023-04-15T19:47:15.027Z,100.00
2023-04-15T19:49:41.969Z,100.00
2023-04-15T19:52:08.700Z,100.00
2023-04-15T19:54:35.369Z,100.00
2023-04-15T19:57:02.220Z,100.00
2023-04-15T19:59:28.847Z,100.00
2023-04-15T20:01:55.816Z,100.00
2023-04-15T20:04:23.197Z,100.00
2023-04-15T20:06:50.057Z,100.00
2023-04-15T20:09:16.903Z,100.00
2023-04-15T20:12:44.937Z,100.00
2023-04-15T20:14:30.958Z,100.00
2023-04-15T20:16:57.837Z,100.00
2023-04-15T20:19:24.376Z,100.00
2023-04-15T20:21:52.552Z,100.00
2023-04-15T20:24:21.576Z,100.00
2023-04-15T20:26:48.118Z,100.00
2023-04-15T20:29:14.993Z,100.00
2023-04-15T20:31:41.900Z,100.00
2023-04-15T20:34:11.359Z,100.00
2023-04-15T20:36:38.641Z,100.00
2023-04-15T20:39:05.748Z,100.00
2023-04-15T20:41:32.563Z,100.00
2023-04-15T20:43:59.464Z,100.00
2023-04-15T20:46:27.845Z,100.00
2023-04-15T20:48:55.723Z,100.00
2023-04-15T20:51:22.471Z,100.00
2023-04-15T20:53:49.636Z,100.00
2023-04-15T20:56:16.355Z,100.00
2023-04-15T20:58:42.983Z,100.00
2023-04-15T21:01:09.831Z,100.00
2023-04-15T21:03:36.779Z,100.00
2023-04-15T21:06:03.674Z,100.00
2023-04-15T21:08:31.860Z,100.00
2023-04-15T21:10:58.524Z,100.00
2023-04-15T21:13:25.694Z,100.00
2023-04-15T21:15:54.213Z,100.00
2023-04-15T21:18:21.972Z,100.00
2023-04-15T21:21:02.208Z,100.00
2023-04-15T21:23:36.014Z,100.00
2023-04-15T21:26:02.931Z,100.00
2023-04-15T21:28:29.876Z,100.00
2023-04-15T21:30:57.798Z,100.00
2023-04-15T21:33:24.502Z,100.00
2023-04-15T21:35:51.732Z,100.00
2023-04-15T21:38:18.386Z,100.00
2023-04-15T21:40:45.060Z,100.00
2023-04-15T21:43:12.159Z,100.00
2023-04-15T21:45:39.587Z,100.00
2023-04-15T21:48:08.127Z,100.00
2023-04-15T21:50:38.224Z,100.00
2023-04-15T21:53:07.733Z,100.00
2023-04-15T21:55:34.552Z,100.00
2023-04-15T21:58:01.314Z,100.00
2023-04-15T22:00:28.068Z,100.00
2023-04-15T22:02:54.924Z,100.00
2023-04-15T22:05:21.896Z,100.00
2023-04-15T22:07:48.570Z,100.00
2023-04-15T22:10:15.483Z,100.00
2023-04-15T22:12:42.310Z,100.00
2023-04-15T22:15:09.466Z,100.00
2023-04-15T22:17:36.173Z,100.00
2023-04-15T22:20:03.764Z,100.00
2023-04-15T22:22:43.597Z,100.00
2023-04-15T22:25:12.288Z,100.00
2023-04-15T22:27:39.396Z,100.00
2023-04-15T22:30:06.848Z,100.00
2023-04-15T22:32:33.457Z,100.00
2023-04-15T22:35:01.643Z,100.00
2023-04-15T22:37:31.426Z,100.00
2023-04-15T22:39:58.273Z,100.00
2023-04-15T22:42:25.342Z,100.00
2023-04-15T22:44:52.069Z,100.00
2023-04-15T22:47:19.106Z,100.00
2023-04-15T22:49:46.115Z,100.00
2023-04-15T22:52:23.333Z,100.00
2023-04-15T22:54:54.183Z,100.00
2023-04-15T22:57:20.710Z,100.00
2023-04-15T22:59:47.504Z,100.00
2023-04-15T23:02:14.439Z,100.00
2023-04-15T23:04:41.435Z,100.00
2023-04-15T23:07:08.266Z,100.00
2023-04-15T23:09:35.032Z,100.00
2023-04-15T23:12:02.969Z,100.00
2023-04-15T23:14:31.554Z,100.00
2023-04-15T23:16:58.506Z,100.00
2023-04-15T23:19:25.230Z,100.00
2023-04-15T23:21:51.959Z,100.00
2023-04-15T23:24:18.590Z,100.00
2023-04-15T23:26:45.558Z,100.00
2023-04-15T23:29:12.235Z,100.00
2023-04-15T23:31:39.053Z,100.00
2023-04-15T23:34:06.403Z,100.00
2023-04-15T23:36:33.275Z,100.00
2023-04-15T23:39:00.043Z,100.00
2023-04-15T23:41:26.600Z,100.00
2023-04-15T23:43:53.306Z,100.00
2023-04-15T23:46:20.269Z,100.00
2023-04-15T23:48:47.934Z,100.00
2023-04-15T23:51:14.867Z,100.00
2023-04-15T23:53:41.825Z,100.00
2023-04-15T23:56:08.528Z,100.00
2023-04-15T23:58:35.235Z,100.00
